createdAt,value
2023-04-02T00:00:59.740Z,17.85
2023-04-02T00:11:00.964Z,17.90
2023-04-02T00:21:02.191Z,17.89
2023-04-02T00:31:03.460Z,17.89
2023-04-02T00:41:04.692Z,17.89
2023-04-02T00:51:05.962Z,17.84
2023-04-02T01:01:07.205Z,17.87
2023-04-02T01:11:08.616Z,17.87
2023-04-02T01:21:09.871Z,17.85
2023-04-02T01:31:11.168Z,17.83
2023-04-02T01:41:12.525Z,17.85
2023-04-02T01:51:13.753Z,17.84
2023-04-02T02:01:15.106Z,17.84
2023-04-02T02:11:16.384Z,17.83
2023-04-02T02:21:17.635Z,17.80
2023-04-02T02:31:18.961Z,17.77
2023-04-02T02:41:20.254Z,17.79
2023-04-02T02:51:21.468Z,17.77
2023-04-02T03:01:22.871Z,17.74
2023-04-02T03:11:24.247Z,17.76
2023-04-02T03:21:25.509Z,17.74
2023-04-02T03:31:26.807Z,17.73
2023-04-02T03:41:28.055Z,17.75
2023-04-02T03:51:29.329Z,17.72
2023-04-02T04:01:30.581Z,17.76
2023-04-02T04:11:31.849Z,17.74
2023-04-02T04:21:33.087Z,17.79
2023-04-02T04:31:34.392Z,17.81
2023-04-02T04:41:35.687Z,17.92
2023-04-02T04:51:36.960Z,17.95
2023-04-02T05:01:38.283Z,18.01
2023-04-02T05:11:39.660Z,18.08
2023-04-02T05:21:40.920Z,18.09
2023-04-02T05:31:42.234Z,18.19
2023-04-02T05:41:43.503Z,18.15
2023-04-02T05:51:44.758Z,18.24
2023-04-02T06:01:46.035Z,18.22
2023-04-02T06:11:47.480Z,18.20
2023-04-02T06:21:52.528Z,18.32
2023-04-02T06:32:00.655Z,18.30
2023-04-02T06:42:08.465Z,18.31
2023-04-02T06:52:19.636Z,18.30
2023-04-02T07:02:24.476Z,18.35
2023-04-02T07:12:34.892Z,18.39
2023-04-02T07:22:45.833Z,18.40
2023-04-02T07:32:52.928Z,18.48
2023-04-02T07:42:57.475Z,18.45
2023-04-02T07:53:07.133Z,18.41
2023-04-02T08:03:19.230Z,18.60
2023-04-02T08:13:22.479Z,18.83
2023-04-02T08:23:31.893Z,18.78
2023-04-02T08:33:37.458Z,18.53
2023-04-02T08:43:49.225Z,18.40
2023-04-02T08:53:54.089Z,18.53
2023-04-02T09:04:00.368Z,18.57
2023-04-02T09:14:02.032Z,18.44
2023-04-02T09:24:04.050Z,18.51
2023-04-02T09:34:06.389Z,18.53
2023-04-02T09:44:07.637Z,18.51
2023-04-02T09:54:08.867Z,18.49
2023-04-02T10:04:10.136Z,18.41
2023-04-02T10:14:11.433Z,18.36
2023-04-02T10:24:12.701Z,18.40
2023-04-02T10:34:13.938Z,18.32
2023-04-02T10:44:20.126Z,18.36
2023-04-02T10:54:30.833Z,18.39
2023-04-02T11:04:32.358Z,18.33
2023-04-02T11:14:36.481Z,18.39
2023-04-02T11:24:38.004Z,18.25
2023-04-02T11:34:39.255Z,18.35
2023-04-02T11:44:40.541Z,18.36
2023-04-02T11:54:41.802Z,18.35
2023-04-02T12:04:43.087Z,18.26
2023-04-02T12:14:44.353Z,18.28
2023-04-02T12:24:45.629Z,18.28
2023-04-02T12:34:46.899Z,18.30
2023-04-02T12:44:51.364Z,18.23
2023-04-02T12:54:53.003Z,18.26
2023-04-02T13:05:11.085Z,18.18
2023-04-02T13:15:15.397Z,18.39
2023-04-02T13:25:17.968Z,18.29
2023-04-02T13:35:32.598Z,18.31
2023-04-02T13:45:43.149Z,18.31
2023-04-02T13:55:50.622Z,18.25
2023-04-02T14:05:56.516Z,18.30
2023-04-02T14:16:03.603Z,18.23
2023-04-02T14:26:05.167Z,18.31
2023-04-02T14:36:12.464Z,18.32
2023-04-02T14:46:13.782Z,18.31
2023-04-02T14:56:15.080Z,18.37
2023-04-02T15:06:16.337Z,18.36
2023-04-02T15:16:17.707Z,18.31
2023-04-02T15:26:18.987Z,18.30
2023-04-02T15:36:20.317Z,18.25
2023-04-02T15:46:21.704Z,18.18
2023-04-02T15:56:25.180Z,18.09
2023-04-02T16:06:28.563Z,18.08
2023-04-02T16:16:30.250Z,18.07
2023-04-02T16:26:37.928Z,18.05
2023-04-02T16:47:08.038Z,17.94
2023-04-02T16:57:09.388Z,17.92
2023-04-02T17:07:19.932Z,17.86
2023-04-02T17:17:27.579Z,17.88
2023-04-02T17:27:35.530Z,17.94
2023-04-02T17:37:41.196Z,17.95
2023-04-02T17:47:42.839Z,17.93
2023-04-02T17:57:44.091Z,17.92
2023-04-02T18:07:45.301Z,17.87
2023-04-02T18:17:46.594Z,17.96
2023-04-02T18:27:47.861Z,17.90
2023-04-02T18:37:49.161Z,17.85
2023-04-02T18:47:50.550Z,17.89
2023-04-02T18:57:51.882Z,17.88
2023-04-02T19:07:53.158Z,17.81
2023-04-02T19:18:01.915Z,17.83
2023-04-02T19:28:03.202Z,17.85
2023-04-02T19:38:04.498Z,17.82
2023-04-02T19:48:05.856Z,17.80
2023-04-02T19:58:17.654Z,17.82
2023-04-02T20:08:20.695Z,17.77
2023-04-02T20:18:21.994Z,17.72
2023-04-02T20:28:23.309Z,17.76
2023-04-02T20:38:24.576Z,17.72
2023-04-02T20:48:25.832Z,17.69
2023-04-02T20:58:27.113Z,17.68
2023-04-02T21:08:28.371Z,17.70
2023-04-02T21:18:29.639Z,17.68
2023-04-02T21:28:30.915Z,17.65
2023-04-02T21:38:32.252Z,17.67
2023-04-02T21:48:33.536Z,17.68
2023-04-02T21:58:34.792Z,17.63
2023-04-02T22:08:36.058Z,17.63
2023-04-02T22:18:37.481Z,17.65
2023-04-02T22:28:38.694Z,17.61
2023-04-02T22:38:39.916Z,17.68
2023-04-02T22:48:41.228Z,17.70
2023-04-02T22:58:42.480Z,17.63
2023-04-02T23:08:43.743Z,17.63
2023-04-02T23:18:44.972Z,17.60
2023-04-02T23:28:46.218Z,17.58
2023-04-02T23:38:47.479Z,17.54
2023-04-02T23:48:48.757Z,17.56
2023-04-02T23:58:49.977Z,17.49
